sensor_id;sensor_type;location;lat;lon;timestamp;P1;durP1;ratioP1;P2;durP2;ratioP2
14078;SDS011;7115;50.150;8.568;2022-10-16T00:01:15;3.07;;;1.03;;
14078;SDS011;7115;50.150;8.568;2022-10-16T00:03:43;1.40;;;1.10;;
14078;SDS011;7115;50.150;8.568;2022-10-16T00:06:11;2.00;;;1.50;;
14078;SDS011;7115;50.150;8.568;2022-10-16T00:08:38;2.67;;;1.67;;
14078;SDS011;7115;50.150;8.568;2022-10-16T00:11:13;2.90;;;1.77;;
14078;SDS011;7115;50.150;8.568;2022-10-16T00:13:40;2.60;;;1.80;;
14078;SDS011;7115;50.150;8.568;2022-10-16T00:16:09;3.80;;;1.80;;
14078;SDS011;7115;50.150;8.568;2022-10-16T00:18:36;3.13;;;1.80;;
14078;SDS011;7115;50.150;8.568;2022-10-16T00:21:04;5.73;;;2.00;;
14078;SDS011;7115;50.150;8.568;2022-10-16T00:23:42;6.70;;;2.30;;
14078;SDS011;7115;50.150;8.568;2022-10-16T00:26:10;2.90;;;1.70;;
14078;SDS011;7115;50.150;8.568;2022-10-16T00:28:41;3.83;;;2.10;;
14078;SDS011;7115;50.150;8.568;2022-10-16T00:31:10;3.53;;;2.60;;
14078;SDS011;7115;50.150;8.568;2022-10-16T00:33:38;5.73;;;4.97;;
14078;SDS011;7115;50.150;8.568;2022-10-16T00:36:06;7.90;;;5.10;;
14078;SDS011;7115;50.150;8.568;2022-10-16T00:38:35;4.70;;;4.20;;
14078;SDS011;7115;50.150;8.568;2022-10-16T00:41:04;5.27;;;4.00;;
14078;SDS011;7115;50.150;8.568;2022-10-16T00:43:41;4.30;;;3.67;;
14078;SDS011;7115;50.150;8.568;2022-10-16T00:49:12;4.30;;;3.40;;
14078;SDS011;7115;50.150;8.568;2022-10-16T00:51:43;3.53;;;3.20;;
14078;SDS011;7115;50.150;8.568;2022-10-16T00:54:17;5.97;;;3.63;;
14078;SDS011;7115;50.150;8.568;2022-10-16T00:56:48;7.57;;;4.07;;
14078;SDS011;7115;50.150;8.568;2022-10-16T00:59:20;5.20;;;4.63;;
14078;SDS011;7115;50.150;8.568;2022-10-16T01:01:54;6.97;;;4.23;;
14078;SDS011;7115;50.150;8.568;2022-10-16T01:04:22;6.53;;;5.20;;
14078;SDS011;7115;50.150;8.568;2022-10-16T01:07:00;4.80;;;4.30;;
14078;SDS011;7115;50.150;8.568;2022-10-16T01:17:41;9.70;;;6.93;;
14078;SDS011;7115;50.150;8.568;2022-10-16T01:20:16;10.37;;;5.20;;
14078;SDS011;7115;50.150;8.568;2022-10-16T01:25:21;8.90;;;5.80;;
14078;SDS011;7115;50.150;8.568;2022-10-16T01:28:09;7.37;;;6.20;;
14078;SDS011;7115;50.150;8.568;2022-10-16T01:30:39;8.20;;;5.60;;
14078;SDS011;7115;50.150;8.568;2022-10-16T01:35:55;7.90;;;5.83;;
14078;SDS011;7115;50.150;8.568;2022-10-16T01:38:33;7.13;;;6.13;;
14078;SDS011;7115;50.150;8.568;2022-10-16T01:41:08;10.63;;;6.30;;
14078;SDS011;7115;50.150;8.568;2022-10-16T01:43:46;9.00;;;6.40;;
14078;SDS011;7115;50.150;8.568;2022-10-16T01:46:16;11.00;;;7.13;;
14078;SDS011;7115;50.150;8.568;2022-10-16T01:48:46;9.63;;;7.20;;
14078;SDS011;7115;50.150;8.568;2022-10-16T01:51:15;9.70;;;7.60;;
14078;SDS011;7115;50.150;8.568;2022-10-16T01:53:45;11.60;;;7.93;;
14078;SDS011;7115;50.150;8.568;2022-10-16T01:56:16;11.57;;;8.50;;
14078;SDS011;7115;50.150;8.568;2022-10-16T01:58:49;13.53;;;8.03;;
14078;SDS011;7115;50.150;8.568;2022-10-16T02:01:38;12.97;;;8.00;;
14078;SDS011;7115;50.150;8.568;2022-10-16T02:04:11;12.87;;;8.13;;
14078;SDS011;7115;50.150;8.568;2022-10-16T02:06:41;14.50;;;9.00;;
14078;SDS011;7115;50.150;8.568;2022-10-16T02:09:08;11.30;;;7.67;;
14078;SDS011;7115;50.150;8.568;2022-10-16T02:11:35;9.07;;;7.40;;
14078;SDS011;7115;50.150;8.568;2022-10-16T02:14:02;11.97;;;7.97;;
14078;SDS011;7115;50.150;8.568;2022-10-16T02:16:38;14.07;;;7.93;;
14078;SDS011;7115;50.150;8.568;2022-10-16T02:19:07;12.77;;;8.53;;
14078;SDS011;7115;50.150;8.568;2022-10-16T02:24:28;14.13;;;8.60;;
14078;SDS011;7115;50.150;8.568;2022-10-16T02:27:05;14.77;;;8.97;;
14078;SDS011;7115;50.150;8.568;2022-10-16T02:29:37;14.87;;;8.83;;
14078;SDS011;7115;50.150;8.568;2022-10-16T02:32:10;17.60;;;9.67;;
14078;SDS011;7115;50.150;8.568;2022-10-16T02:34:41;13.10;;;8.83;;
14078;SDS011;7115;50.150;8.568;2022-10-16T02:37:09;11.67;;;8.60;;
14078;SDS011;7115;50.150;8.568;2022-10-16T02:39:36;13.93;;;7.93;;
14078;SDS011;7115;50.150;8.568;2022-10-16T02:42:06;12.33;;;9.27;;
14078;SDS011;7115;50.150;8.568;2022-10-16T02:44:37;13.13;;;8.97;;
14078;SDS011;7115;50.150;8.568;2022-10-16T02:47:04;10.77;;;8.03;;
14078;SDS011;7115;50.150;8.568;2022-10-16T02:49:31;15.83;;;8.37;;
14078;SDS011;7115;50.150;8.568;2022-10-16T02:51:57;13.70;;;8.23;;
14078;SDS011;7115;50.150;8.568;2022-10-16T02:54:24;10.87;;;7.90;;
14078;SDS011;7115;50.150;8.568;2022-10-16T02:56:51;13.83;;;7.67;;
14078;SDS011;7115;50.150;8.568;2022-10-16T02:59:17;10.47;;;7.53;;
14078;SDS011;7115;50.150;8.568;2022-10-16T03:01:44;11.83;;;7.17;;
14078;SDS011;7115;50.150;8.568;2022-10-16T03:04:11;9.07;;;6.97;;
14078;SDS011;7115;50.150;8.568;2022-10-16T03:06:37;9.03;;;6.33;;
14078;SDS011;7115;50.150;8.568;2022-10-16T03:09:04;9.23;;;6.17;;
14078;SDS011;7115;50.150;8.568;2022-10-16T03:11:31;8.07;;;6.30;;
14078;SDS011;7115;50.150;8.568;2022-10-16T03:13:58;8.23;;;5.13;;
14078;SDS011;7115;50.150;8.568;2022-10-16T03:16:24;7.90;;;5.73;;
14078;SDS011;7115;50.150;8.568;2022-10-16T03:18:51;10.83;;;5.80;;
14078;SDS011;7115;50.150;8.568;2022-10-16T03:21:17;6.67;;;4.87;;
14078;SDS011;7115;50.150;8.568;2022-10-16T03:23:44;6.87;;;4.93;;
14078;SDS011;7115;50.150;8.568;2022-10-16T03:26:11;5.77;;;5.17;;
14078;SDS011;7115;50.150;8.568;2022-10-16T03:28:37;7.77;;;5.80;;
14078;SDS011;7115;50.150;8.568;2022-10-16T03:31:04;9.77;;;5.60;;
14078;SDS011;7115;50.150;8.568;2022-10-16T03:33:31;8.80;;;5.60;;
14078;SDS011;7115;50.150;8.568;2022-10-16T03:35:58;7.50;;;5.70;;
14078;SDS011;7115;50.150;8.568;2022-10-16T03:38:25;10.50;;;5.73;;
14078;SDS011;7115;50.150;8.568;2022-10-16T03:40:52;7.60;;;5.80;;
14078;SDS011;7115;50.150;8.568;2022-10-16T03:43:18;8.30;;;5.53;;
14078;SDS011;7115;50.150;8.568;2022-10-16T03:45:45;8.10;;;6.30;;
14078;SDS011;7115;50.150;8.568;2022-10-16T03:48:12;8.23;;;5.33;;
14078;SDS011;7115;50.150;8.568;2022-10-16T03:50:38;9.43;;;5.63;;
14078;SDS011;7115;50.150;8.568;2022-10-16T03:53:05;8.03;;;5.43;;
14078;SDS011;7115;50.150;8.568;2022-10-16T03:55:32;6.23;;;5.33;;
14078;SDS011;7115;50.150;8.568;2022-10-16T03:57:58;6.50;;;5.03;;
14078;SDS011;7115;50.150;8.568;2022-10-16T04:00:25;7.80;;;5.17;;
14078;SDS011;7115;50.150;8.568;2022-10-16T04:02:52;10.47;;;5.47;;
14078;SDS011;7115;50.150;8.568;2022-10-16T04:05:19;6.67;;;5.47;;
14078;SDS011;7115;50.150;8.568;2022-10-16T04:07:46;8.27;;;4.73;;
14078;SDS011;7115;50.150;8.568;2022-10-16T04:10:12;6.83;;;5.13;;
14078;SDS011;7115;50.150;8.568;2022-10-16T04:12:39;6.53;;;4.73;;
14078;SDS011;7115;50.150;8.568;2022-10-16T04:15:06;8.30;;;4.37;;
14078;SDS011;7115;50.150;8.568;2022-10-16T04:17:33;7.50;;;4.90;;
14078;SDS011;7115;50.150;8.568;2022-10-16T04:19:59;7.70;;;4.30;;
14078;SDS011;7115;50.150;8.568;2022-10-16T04:22:26;9.73;;;4.47;;
14078;SDS011;7115;50.150;8.568;2022-10-16T04:24:53;4.67;;;3.83;;
14078;SDS011;7115;50.150;8.568;2022-10-16T04:27:19;7.33;;;4.33;;
14078;SDS011;7115;50.150;8.568;2022-10-16T04:29:49;6.57;;;4.20;;
14078;SDS011;7115;50.150;8.568;2022-10-16T04:32:16;6.97;;;3.83;;
14078;SDS011;7115;50.150;8.568;2022-10-16T04:34:42;4.77;;;4.17;;
14078;SDS011;7115;50.150;8.568;2022-10-16T04:37:09;8.43;;;3.87;;
14078;SDS011;7115;50.150;8.568;2022-10-16T04:39:36;7.77;;;4.47;;
14078;SDS011;7115;50.150;8.568;2022-10-16T04:42:02;5.43;;;3.83;;
14078;SDS011;7115;50.150;8.568;2022-10-16T04:44:29;5.13;;;3.63;;
14078;SDS011;7115;50.150;8.568;2022-10-16T04:46:56;4.63;;;3.37;;
14078;SDS011;7115;50.150;8.568;2022-10-16T04:49:22;4.87;;;3.90;;
14078;SDS011;7115;50.150;8.568;2022-10-16T04:51:49;7.07;;;4.27;;
14078;SDS011;7115;50.150;8.568;2022-10-16T04:54:16;5.43;;;3.87;;
14078;SDS011;7115;50.150;8.568;2022-10-16T04:56:42;5.10;;;3.50;;
14078;SDS011;7115;50.150;8.568;2022-10-16T04:59:16;4.47;;;3.53;;
14078;SDS011;7115;50.150;8.568;2022-10-16T05:01:44;6.33;;;3.40;;
14078;SDS011;7115;50.150;8.568;2022-10-16T05:04:11;4.93;;;3.70;;
14078;SDS011;7115;50.150;8.568;2022-10-16T05:06:38;4.47;;;3.30;;
14078;SDS011;7115;50.150;8.568;2022-10-16T05:09:05;3.97;;;3.40;;
14078;SDS011;7115;50.150;8.568;2022-10-16T05:11:32;5.33;;;3.63;;
14078;SDS011;7115;50.150;8.568;2022-10-16T05:13:59;4.07;;;2.67;;
14078;SDS011;7115;50.150;8.568;2022-10-16T05:16:26;3.90;;;2.80;;
14078;SDS011;7115;50.150;8.568;2022-10-16T05:18:53;5.73;;;2.50;;
14078;SDS011;7115;50.150;8.568;2022-10-16T05:21:29;5.67;;;2.20;;
14078;SDS011;7115;50.150;8.568;2022-10-16T05:23:56;2.97;;;2.47;;
14078;SDS011;7115;50.150;8.568;2022-10-16T05:26:22;3.60;;;2.23;;
14078;SDS011;7115;50.150;8.568;2022-10-16T05:28:49;4.77;;;2.47;;
14078;SDS011;7115;50.150;8.568;2022-10-16T05:31:16;3.73;;;2.07;;
14078;SDS011;7115;50.150;8.568;2022-10-16T05:33:43;2.87;;;2.07;;
14078;SDS011;7115;50.150;8.568;2022-10-16T05:36:10;4.40;;;2.30;;
14078;SDS011;7115;50.150;8.568;2022-10-16T05:38:37;3.23;;;2.67;;
14078;SDS011;7115;50.150;8.568;2022-10-16T05:41:05;2.80;;;2.07;;
14078;SDS011;7115;50.150;8.568;2022-10-16T05:43:32;6.57;;;2.40;;
14078;SDS011;7115;50.150;8.568;2022-10-16T05:46:00;2.37;;;2.03;;
14078;SDS011;7115;50.150;8.568;2022-10-16T05:48:29;4.17;;;2.37;;
14078;SDS011;7115;50.150;8.568;2022-10-16T05:50:59;4.30;;;2.50;;
14078;SDS011;7115;50.150;8.568;2022-10-16T05:53:28;3.87;;;2.40;;
14078;SDS011;7115;50.150;8.568;2022-10-16T05:55:57;2.33;;;2.13;;
14078;SDS011;7115;50.150;8.568;2022-10-16T05:58:24;2.70;;;2.27;;
14078;SDS011;7115;50.150;8.568;2022-10-16T06:00:57;5.03;;;3.20;;
14078;SDS011;7115;50.150;8.568;2022-10-16T06:03:29;3.47;;;2.80;;
14078;SDS011;7115;50.150;8.568;2022-10-16T06:05:55;5.77;;;2.57;;
14078;SDS011;7115;50.150;8.568;2022-10-16T06:08:22;4.30;;;2.40;;
14078;SDS011;7115;50.150;8.568;2022-10-16T06:10:59;5.87;;;2.70;;
14078;SDS011;7115;50.150;8.568;2022-10-16T06:13:27;3.03;;;2.50;;
14078;SDS011;7115;50.150;8.568;2022-10-16T06:15:56;3.47;;;2.60;;
14078;SDS011;7115;50.150;8.568;2022-10-16T06:18:24;3.83;;;2.80;;
14078;SDS011;7115;50.150;8.568;2022-10-16T06:20:51;3.37;;;2.47;;
14078;SDS011;7115;50.150;8.568;2022-10-16T06:23:17;5.20;;;2.43;;
14078;SDS011;7115;50.150;8.568;2022-10-16T06:25:44;2.97;;;2.40;;
14078;SDS011;7115;50.150;8.568;2022-10-16T06:28:11;6.00;;;2.87;;
14078;SDS011;7115;50.150;8.568;2022-10-16T06:30:40;5.67;;;2.93;;
14078;SDS011;7115;50.150;8.568;2022-10-16T06:33:06;5.23;;;2.73;;
14078;SDS011;7115;50.150;8.568;2022-10-16T06:35:33;4.40;;;2.90;;
14078;SDS011;7115;50.150;8.568;2022-10-16T06:38:00;3.10;;;2.80;;
14078;SDS011;7115;50.150;8.568;2022-10-16T06:40:26;3.00;;;2.70;;
14078;SDS011;7115;50.150;8.568;2022-10-16T06:42:56;4.27;;;3.07;;
14078;SDS011;7115;50.150;8.568;2022-10-16T06:45:23;5.27;;;2.50;;
14078;SDS011;7115;50.150;8.568;2022-10-16T06:47:50;3.13;;;2.50;;
14078;SDS011;7115;50.150;8.568;2022-10-16T06:50:16;2.80;;;2.50;;
14078;SDS011;7115;50.150;8.568;2022-10-16T06:52:43;3.83;;;2.57;;
14078;SDS011;7115;50.150;8.568;2022-10-16T06:55:10;3.57;;;2.80;;
14078;SDS011;7115;50.150;8.568;2022-10-16T06:57:36;3.63;;;2.60;;
14078;SDS011;7115;50.150;8.568;2022-10-16T07:00:03;3.33;;;2.60;;
14078;SDS011;7115;50.150;8.568;2022-10-16T07:02:31;4.10;;;2.10;;
14078;SDS011;7115;50.150;8.568;2022-10-16T07:04:57;6.33;;;2.30;;
14078;SDS011;7115;50.150;8.568;2022-10-16T07:07:24;6.77;;;2.70;;
14078;SDS011;7115;50.150;8.568;2022-10-16T07:09:52;3.93;;;2.57;;
14078;SDS011;7115;50.150;8.568;2022-10-16T07:12:19;2.87;;;2.20;;
14078;SDS011;7115;50.150;8.568;2022-10-16T07:14:45;3.23;;;2.30;;
14078;SDS011;7115;50.150;8.568;2022-10-16T07:17:12;3.77;;;2.20;;
14078;SDS011;7115;50.150;8.568;2022-10-16T07:19:39;3.87;;;2.27;;
14078;SDS011;7115;50.150;8.568;2022-10-16T07:22:06;4.77;;;2.33;;
14078;SDS011;7115;50.150;8.568;2022-10-16T07:24:32;4.37;;;3.07;;
14078;SDS011;7115;50.150;8.568;2022-10-16T07:26:59;4.80;;;2.57;;
14078;SDS011;7115;50.150;8.568;2022-10-16T07:29:26;4.90;;;2.83;;
14078;SDS011;7115;50.150;8.568;2022-10-16T07:31:52;5.20;;;2.67;;
14078;SDS011;7115;50.150;8.568;2022-10-16T07:34:19;2.93;;;2.57;;
14078;SDS011;7115;50.150;8.568;2022-10-16T07:36:48;3.43;;;2.60;;
14078;SDS011;7115;50.150;8.568;2022-10-16T07:39:16;2.57;;;2.07;;
14078;SDS011;7115;50.150;8.568;2022-10-16T07:41:43;5.97;;;2.93;;
14078;SDS011;7115;50.150;8.568;2022-10-16T07:44:10;4.33;;;2.47;;
14078;SDS011;7115;50.150;8.568;2022-10-16T07:46:37;5.47;;;2.90;;
14078;SDS011;7115;50.150;8.568;2022-10-16T07:49:04;4.10;;;2.63;;
14078;SDS011;7115;50.150;8.568;2022-10-16T07:51:30;3.20;;;2.27;;
14078;SDS011;7115;50.150;8.568;2022-10-16T07:53:57;4.03;;;2.53;;
14078;SDS011;7115;50.150;8.568;2022-10-16T07:56:24;2.37;;;2.17;;
14078;SDS011;7115;50.150;8.568;2022-10-16T07:58:51;3.67;;;2.10;;
14078;SDS011;7115;50.150;8.568;2022-10-16T08:01:18;7.27;;;2.50;;
14078;SDS011;7115;50.150;8.568;2022-10-16T08:03:46;4.43;;;2.17;;
14078;SDS011;7115;50.150;8.568;2022-10-16T08:06:14;6.63;;;2.20;;
14078;SDS011;7115;50.150;8.568;2022-10-16T08:08:45;2.50;;;2.30;;
14078;SDS011;7115;50.150;8.568;2022-10-16T08:11:13;3.33;;;2.43;;
14078;SDS011;7115;50.150;8.568;2022-10-16T08:13:41;6.17;;;2.57;;
14078;SDS011;7115;50.150;8.568;2022-10-16T08:16:08;3.93;;;2.63;;
14078;SDS011;7115;50.150;8.568;2022-10-16T08:18:36;6.80;;;2.53;;
14078;SDS011;7115;50.150;8.568;2022-10-16T08:21:04;2.73;;;2.17;;
14078;SDS011;7115;50.150;8.568;2022-10-16T08:23:32;4.70;;;3.13;;
14078;SDS011;7115;50.150;8.568;2022-10-16T08:26:04;6.23;;;2.80;;
14078;SDS011;7115;50.150;8.568;2022-10-16T08:28:33;5.03;;;2.30;;
14078;SDS011;7115;50.150;8.568;2022-10-16T08:33:33;4.23;;;2.03;;
14078;SDS011;7115;50.150;8.568;2022-10-16T08:36:01;4.00;;;2.20;;
14078;SDS011;7115;50.150;8.568;2022-10-16T08:38:29;6.50;;;2.40;;
14078;SDS011;7115;50.150;8.568;2022-10-16T08:40:57;2.57;;;2.10;;
14078;SDS011;7115;50.150;8.568;2022-10-16T08:44:01;5.67;;;2.17;;
14078;SDS011;7115;50.150;8.568;2022-10-16T08:46:56;3.50;;;2.17;;
14078;SDS011;7115;50.150;8.568;2022-10-16T08:49:28;27.83;;;16.60;;
14078;SDS011;7115;50.150;8.568;2022-10-16T08:51:56;7.50;;;4.70;;
14078;SDS011;7115;50.150;8.568;2022-10-16T08:54:34;3.80;;;2.60;;
14078;SDS011;7115;50.150;8.568;2022-10-16T08:57:11;5.10;;;2.20;;
14078;SDS011;7115;50.150;8.568;2022-10-16T08:59:48;2.77;;;2.47;;
14078;SDS011;7115;50.150;8.568;2022-10-16T09:05:03;3.60;;;2.50;;
14078;SDS011;7115;50.150;8.568;2022-10-16T09:13:19;12.87;;;9.30;;
14078;SDS011;7115;50.150;8.568;2022-10-16T09:15:52;2.80;;;2.60;;
14078;SDS011;7115;50.150;8.568;2022-10-16T09:21:18;6.10;;;2.70;;
14078;SDS011;7115;50.150;8.568;2022-10-16T09:23:57;3.80;;;2.43;;
14078;SDS011;7115;50.150;8.568;2022-10-16T09:26:30;3.23;;;2.30;;
14078;SDS011;7115;50.150;8.568;2022-10-16T09:28:57;3.67;;;2.47;;
14078;SDS011;7115;50.150;8.568;2022-10-16T09:31:24;3.97;;;2.90;;
14078;SDS011;7115;50.150;8.568;2022-10-16T09:33:55;4.13;;;2.90;;
14078;SDS011;7115;50.150;8.568;2022-10-16T09:36:25;4.87;;;3.10;;
14078;SDS011;7115;50.150;8.568;2022-10-16T09:39:02;5.73;;;3.17;;
14078;SDS011;7115;50.150;8.568;2022-10-16T09:41:34;5.40;;;2.77;;
14078;SDS011;7115;50.150;8.568;2022-10-16T09:44:03;6.40;;;3.10;;
14078;SDS011;7115;50.150;8.568;2022-10-16T09:46:42;6.20;;;3.03;;
14078;SDS011;7115;50.150;8.568;2022-10-16T09:54:32;5.23;;;2.83;;
14078;SDS011;7115;50.150;8.568;2022-10-16T09:57:06;3.97;;;2.73;;
14078;SDS011;7115;50.150;8.568;2022-10-16T09:59:33;5.27;;;3.10;;
14078;SDS011;7115;50.150;8.568;2022-10-16T10:02:01;4.40;;;3.10;;
14078;SDS011;7115;50.150;8.568;2022-10-16T10:04:37;4.27;;;3.33;;
14078;SDS011;7115;50.150;8.568;2022-10-16T10:07:15;5.77;;;2.80;;
14078;SDS011;7115;50.150;8.568;2022-10-16T10:09:53;4.43;;;2.80;;
14078;SDS011;7115;50.150;8.568;2022-10-16T10:12:26;3.33;;;2.10;;
14078;SDS011;7115;50.150;8.568;2022-10-16T10:14:55;3.20;;;2.37;;
14078;SDS011;7115;50.150;8.568;2022-10-16T10:17:26;2.97;;;2.20;;
14078;SDS011;7115;50.150;8.568;2022-10-16T10:19:55;3.63;;;2.03;;
14078;SDS011;7115;50.150;8.568;2022-10-16T10:22:31;3.77;;;1.73;;
14078;SDS011;7115;50.150;8.568;2022-10-16T10:27:44;2.17;;;1.60;;
14078;SDS011;7115;50.150;8.568;2022-10-16T10:35:39;5.80;;;1.10;;
14078;SDS011;7115;50.150;8.568;2022-10-16T10:44:16;1.80;;;1.50;;
14078;SDS011;7115;50.150;8.568;2022-10-16T10:49:54;2.77;;;1.27;;
14078;SDS011;7115;50.150;8.568;2022-10-16T11:03:24;3.77;;;1.70;;
14078;SDS011;7115;50.150;8.568;2022-10-16T11:06:26;4.40;;;1.30;;
14078;SDS011;7115;50.150;8.568;2022-10-16T11:09:06;2.90;;;1.20;;
14078;SDS011;7115;50.150;8.568;2022-10-16T11:11:40;2.40;;;1.43;;
14078;SDS011;7115;50.150;8.568;2022-10-16T11:14:15;1.50;;;1.30;;
14078;SDS011;7115;50.150;8.568;2022-10-16T11:16:54;4.23;;;1.30;;
14078;SDS011;7115;50.150;8.568;2022-10-16T11:19:41;1.43;;;1.17;;
14078;SDS011;7115;50.150;8.568;2022-10-16T11:25:44;2.80;;;1.40;;
14078;SDS011;7115;50.150;8.568;2022-10-16T11:37:17;3.57;;;1.10;;
14078;SDS011;7115;50.150;8.568;2022-10-16T11:39:52;1.97;;;1.70;;
14078;SDS011;7115;50.150;8.568;2022-10-16T11:42:30;2.40;;;2.10;;
14078;SDS011;7115;50.150;8.568;2022-10-16T11:47:37;2.80;;;2.20;;
14078;SDS011;7115;50.150;8.568;2022-10-16T11:55:54;3.50;;;3.20;;
14078;SDS011;7115;50.150;8.568;2022-10-16T12:08:58;3.20;;;2.60;;
14078;SDS011;7115;50.150;8.568;2022-10-16T12:16:31;3.47;;;2.20;;
14078;SDS011;7115;50.150;8.568;2022-10-16T12:19:12;2.30;;;2.10;;
14078;SDS011;7115;50.150;8.568;2022-10-16T12:21:40;3.53;;;2.07;;
14078;SDS011;7115;50.150;8.568;2022-10-16T12:24:18;4.90;;;2.43;;
14078;SDS011;7115;50.150;8.568;2022-10-16T12:26:58;3.00;;;2.13;;
14078;SDS011;7115;50.150;8.568;2022-10-16T12:29:39;3.33;;;2.07;;
14078;SDS011;7115;50.150;8.568;2022-10-16T12:35:20;4.23;;;1.60;;
14078;SDS011;7115;50.150;8.568;2022-10-16T12:37:49;1.93;;;1.40;;
14078;SDS011;7115;50.150;8.568;2022-10-16T12:42:57;1.77;;;1.30;;
14078;SDS011;7115;50.150;8.568;2022-10-16T12:47:59;1.40;;;1.20;;
14078;SDS011;7115;50.150;8.568;2022-10-16T12:50:37;2.83;;;1.23;;
14078;SDS011;7115;50.150;8.568;2022-10-16T12:53:20;5.50;;;1.63;;
14078;SDS011;7115;50.150;8.568;2022-10-16T13:01:25;1.80;;;1.37;;
14078;SDS011;7115;50.150;8.568;2022-10-16T13:07:17;2.77;;;1.63;;
14078;SDS011;7115;50.150;8.568;2022-10-16T13:18:13;1.57;;;1.17;;
14078;SDS011;7115;50.150;8.568;2022-10-16T13:32:48;1.70;;;1.20;;
14078;SDS011;7115;50.150;8.568;2022-10-16T13:35:24;2.03;;;1.30;;
14078;SDS011;7115;50.150;8.568;2022-10-16T13:38:13;1.90;;;1.20;;
14078;SDS011;7115;50.150;8.568;2022-10-16T13:43:31;1.77;;;1.30;;
14078;SDS011;7115;50.150;8.568;2022-10-16T13:45:59;2.00;;;1.03;;
14078;SDS011;7115;50.150;8.568;2022-10-16T13:48:28;1.90;;;1.00;;
14078;SDS011;7115;50.150;8.568;2022-10-16T13:51:10;1.20;;;1.00;;
14078;SDS011;7115;50.150;8.568;2022-10-16T13:53:39;1.30;;;1.07;;
14078;SDS011;7115;50.150;8.568;2022-10-16T13:56:10;1.87;;;0.93;;
14078;SDS011;7115;50.150;8.568;2022-10-16T13:58:40;1.70;;;0.90;;
14078;SDS011;7115;50.150;8.568;2022-10-16T14:01:16;1.60;;;1.03;;
14078;SDS011;7115;50.150;8.568;2022-10-16T14:03:46;1.83;;;1.23;;
14078;SDS011;7115;50.150;8.568;2022-10-16T14:06:18;3.00;;;0.80;;
14078;SDS011;7115;50.150;8.568;2022-10-16T14:08:59;2.33;;;0.93;;
14078;SDS011;7115;50.150;8.568;2022-10-16T14:11:31;1.33;;;1.20;;
14078;SDS011;7115;50.150;8.568;2022-10-16T14:13:58;1.60;;;0.90;;
14078;SDS011;7115;50.150;8.568;2022-10-16T14:16:27;1.30;;;1.20;;
14078;SDS011;7115;50.150;8.568;2022-10-16T14:18:57;1.70;;;1.03;;
14078;SDS011;7115;50.150;8.568;2022-10-16T14:21:30;1.10;;;1.00;;
14078;SDS011;7115;50.150;8.568;2022-10-16T14:23:58;2.07;;;1.00;;
14078;SDS011;7115;50.150;8.568;2022-10-16T14:26:27;2.10;;;1.03;;
14078;SDS011;7115;50.150;8.568;2022-10-16T14:29:08;1.37;;;1.00;;
14078;SDS011;7115;50.150;8.568;2022-10-16T14:31:40;5.40;;;1.20;;
14078;SDS011;7115;50.150;8.568;2022-10-16T14:39:53;2.60;;;1.40;;
14078;SDS011;7115;50.150;8.568;2022-10-16T14:42:22;1.93;;;1.10;;
14078;SDS011;7115;50.150;8.568;2022-10-16T14:44:50;1.67;;;1.17;;
14078;SDS011;7115;50.150;8.568;2022-10-16T14:47:19;1.30;;;1.20;;
14078;SDS011;7115;50.150;8.568;2022-10-16T14:49:52;1.93;;;1.10;;
14078;SDS011;7115;50.150;8.568;2022-10-16T14:52:24;2.60;;;1.00;;
14078;SDS011;7115;50.150;8.568;2022-10-16T14:54:51;2.53;;;0.90;;
14078;SDS011;7115;50.150;8.568;2022-10-16T14:57:23;2.90;;;1.30;;
14078;SDS011;7115;50.150;8.568;2022-10-16T14:59:53;1.83;;;1.07;;
14078;SDS011;7115;50.150;8.568;2022-10-16T15:02:23;1.70;;;1.20;;
14078;SDS011;7115;50.150;8.568;2022-10-16T15:04:55;1.43;;;1.00;;
14078;SDS011;7115;50.150;8.568;2022-10-16T15:07:23;2.33;;;1.60;;
14078;SDS011;7115;50.150;8.568;2022-10-16T15:09:50;2.33;;;1.30;;
14078;SDS011;7115;50.150;8.568;2022-10-16T15:12:17;1.07;;;0.97;;
14078;SDS011;7115;50.150;8.568;2022-10-16T15:14:44;2.37;;;1.50;;
14078;SDS011;7115;50.150;8.568;2022-10-16T15:17:11;1.40;;;1.30;;
14078;SDS011;7115;50.150;8.568;2022-10-16T15:19:39;1.10;;;1.00;;
14078;SDS011;7115;50.150;8.568;2022-10-16T15:22:06;2.33;;;1.47;;
14078;SDS011;7115;50.150;8.568;2022-10-16T15:24:34;1.40;;;1.20;;
14078;SDS011;7115;50.150;8.568;2022-10-16T15:27:01;2.43;;;1.20;;
14078;SDS011;7115;50.150;8.568;2022-10-16T15:29:28;1.67;;;1.50;;
14078;SDS011;7115;50.150;8.568;2022-10-16T15:31:55;1.83;;;1.33;;
14078;SDS011;7115;50.150;8.568;2022-10-16T15:34:21;3.13;;;2.17;;
14078;SDS011;7115;50.150;8.568;2022-10-16T15:36:48;2.03;;;1.43;;
14078;SDS011;7115;50.150;8.568;2022-10-16T15:39:16;1.90;;;1.43;;
14078;SDS011;7115;50.150;8.568;2022-10-16T15:41:45;2.97;;;1.73;;
14078;SDS011;7115;50.150;8.568;2022-10-16T15:44:17;2.80;;;1.37;;
14078;SDS011;7115;50.150;8.568;2022-10-16T15:46:44;2.47;;;1.20;;
14078;SDS011;7115;50.150;8.568;2022-10-16T15:49:11;1.87;;;1.43;;
14078;SDS011;7115;50.150;8.568;2022-10-16T15:51:39;1.47;;;1.20;;
14078;SDS011;7115;50.150;8.568;2022-10-16T15:54:07;1.80;;;1.57;;
14078;SDS011;7115;50.150;8.568;2022-10-16T15:56:34;3.67;;;1.70;;
14078;SDS011;7115;50.150;8.568;2022-10-16T15:59:02;5.60;;;1.87;;
14078;SDS011;7115;50.150;8.568;2022-10-16T16:01:33;2.27;;;1.53;;
14078;SDS011;7115;50.150;8.568;2022-10-16T16:04:01;1.40;;;1.30;;
14078;SDS011;7115;50.150;8.568;2022-10-16T16:06:40;1.40;;;1.30;;
14078;SDS011;7115;50.150;8.568;2022-10-16T16:09:11;3.37;;;1.50;;
14078;SDS011;7115;50.150;8.568;2022-10-16T16:11:39;3.07;;;1.83;;
14078;SDS011;7115;50.150;8.568;2022-10-16T16:14:06;4.83;;;4.07;;
14078;SDS011;7115;50.150;8.568;2022-10-16T16:16:36;6.03;;;4.63;;
14078;SDS011;7115;50.150;8.568;2022-10-16T16:19:04;4.67;;;3.40;;
14078;SDS011;7115;50.150;8.568;2022-10-16T16:21:36;5.07;;;2.70;;
14078;SDS011;7115;50.150;8.568;2022-10-16T16:24:03;13.57;;;7.37;;
14078;SDS011;7115;50.150;8.568;2022-10-16T16:26:34;5.03;;;3.07;;
14078;SDS011;7115;50.150;8.568;2022-10-16T16:29:05;3.43;;;2.23;;
14078;SDS011;7115;50.150;8.568;2022-10-16T16:31:32;3.13;;;1.83;;
14078;SDS011;7115;50.150;8.568;2022-10-16T16:34:00;4.87;;;2.20;;
14078;SDS011;7115;50.150;8.568;2022-10-16T16:36:27;3.53;;;1.63;;
14078;SDS011;7115;50.150;8.568;2022-10-16T16:38:54;3.10;;;1.77;;
14078;SDS011;7115;50.150;8.568;2022-10-16T16:41:25;2.17;;;1.97;;
14078;SDS011;7115;50.150;8.568;2022-10-16T16:43:54;2.40;;;1.83;;
14078;SDS011;7115;50.150;8.568;2022-10-16T16:46:22;5.40;;;2.00;;
14078;SDS011;7115;50.150;8.568;2022-10-16T16:48:48;2.10;;;1.90;;
14078;SDS011;7115;50.150;8.568;2022-10-16T16:51:21;2.50;;;2.30;;
14078;SDS011;7115;50.150;8.568;2022-10-16T16:53:49;4.43;;;2.90;;
14078;SDS011;7115;50.150;8.568;2022-10-16T16:56:17;3.37;;;2.97;;
14078;SDS011;7115;50.150;8.568;2022-10-16T16:58:45;3.47;;;2.13;;
14078;SDS011;7115;50.150;8.568;2022-10-16T17:01:15;2.77;;;2.50;;
14078;SDS011;7115;50.150;8.568;2022-10-16T17:03:47;6.03;;;2.80;;
14078;SDS011;7115;50.150;8.568;2022-10-16T17:06:21;3.20;;;2.40;;
14078;SDS011;7115;50.150;8.568;2022-10-16T17:08:50;3.70;;;3.00;;
14078;SDS011;7115;50.150;8.568;2022-10-16T17:11:21;4.27;;;2.93;;
14078;SDS011;7115;50.150;8.568;2022-10-16T17:13:49;2.33;;;2.13;;
14078;SDS011;7115;50.150;8.568;2022-10-16T17:16:33;3.67;;;3.07;;
14078;SDS011;7115;50.150;8.568;2022-10-16T17:19:02;5.50;;;3.67;;
14078;SDS011;7115;50.150;8.568;2022-10-16T17:21:29;5.53;;;3.63;;
14078;SDS011;7115;50.150;8.568;2022-10-16T17:23:58;5.50;;;4.20;;
14078;SDS011;7115;50.150;8.568;2022-10-16T17:26:26;8.57;;;3.97;;
14078;SDS011;7115;50.150;8.568;2022-10-16T17:28:53;4.30;;;2.93;;
14078;SDS011;7115;50.150;8.568;2022-10-16T17:31:25;5.20;;;3.43;;
14078;SDS011;7115;50.150;8.568;2022-10-16T17:33:54;5.47;;;3.00;;
14078;SDS011;7115;50.150;8.568;2022-10-16T17:36:21;5.03;;;2.83;;
14078;SDS011;7115;50.150;8.568;2022-10-16T17:38:48;7.43;;;2.90;;
14078;SDS011;7115;50.150;8.568;2022-10-16T17:43:44;4.77;;;2.87;;
14078;SDS011;7115;50.150;8.568;2022-10-16T17:46:12;3.10;;;2.80;;
14078;SDS011;7115;50.150;8.568;2022-10-16T17:48:40;3.37;;;3.00;;